Time;durP1;ratioP1;P1;durP2;ratioP2;P2;SDS_P1;SDS_P2;PMS_P1;PMS_P2;Temp;Humidity;BMP_temperature;BMP_pressure;BME280_temperature;BME280_humidity;BME280_pressure;Samples;Min_cycle;Max_cycle;Signal;HPM_P1;HPM_P2
2023/06/01 00:02:11;;;;;;;10.02;4.90;;;25.60;50.00;;;;;;5091686;28;20036;-67
2023/06/01 00:04:41;;;;;;;8.25;4.50;;;25.60;50.00;;;;;;5090149;28;20111;-67
2023/06/01 00:07:08;;;;;;;14.52;5.38;;;25.40;50.00;;;;;;5091133;28;20086;-67
2023/06/01 00:09:34;;;;;;;14.25;5.88;;;25.40;50.10;;;;;;5091481;28;20085;-67
2023/06/01 00:12:00;;;;;;;11.88;4.90;;;25.30;50.20;;;;;;5091401;28;20036;-67
2023/06/01 00:14:26;;;;;;;11.07;5.28;;;25.40;50.20;;;;;;5091143;28;20028;-67
2023/06/01 00:16:52;;;;;;;7.57;4.97;;;25.40;50.30;;;;;;5091020;28;20036;-66
2023/06/01 00:19:20;;;;;;;11.88;4.82;;;25.40;50.40;;;;;;5091134;28;20599;-67
2023/06/01 00:21:47;;;;;;;12.80;5.32;;;25.30;50.50;;;;;;5090039;28;20032;-66
2023/06/01 00:24:12;;;;;;;9.75;5.03;;;25.40;50.50;;;;;;5089540;28;20059;-66
2023/06/01 00:26:38;;;;;;;9.15;5.32;;;25.40;50.50;;;;;;5090891;28;20048;-68
2023/06/01 00:29:04;;;;;;;8.93;4.88;;;25.30;50.60;;;;;;5089909;28;20106;-66
2023/06/01 00:31:30;;;;;;;7.10;4.30;;;25.40;50.60;;;;;;5091048;28;20070;-67
2023/06/01 00:33:56;;;;;;;9.35;4.65;;;25.30;50.60;;;;;;5073013;28;20141;-67
2023/06/01 00:36:23;;;;;;;9.60;4.55;;;25.40;50.60;;;;;;5089794;28;20028;-67
2023/06/01 00:38:49;;;;;;;9.00;4.53;;;25.30;50.60;;;;;;5091159;28;20032;-67
2023/06/01 00:41:15;;;;;;;11.93;5.10;;;25.40;50.70;;;;;;5091169;28;20122;-66
2023/06/01 00:43:41;;;;;;;9.95;4.65;;;25.40;50.70;;;;;;5089624;28;20032;-66
2023/06/01 00:46:07;;;;;;;11.65;4.72;;;25.30;50.70;;;;;;5090895;28;20043;-66
2023/06/01 00:48:34;;;;;;;14.20;5.00;;;25.30;50.80;;;;;;5073102;28;20107;-67
2023/06/01 00:51:00;;;;;;;8.65;4.40;;;25.30;50.80;;;;;;5089497;28;20100;-67
2023/06/01 00:53:26;;;;;;;7.28;4.90;;;25.30;50.80;;;;;;5091197;28;20092;-67
2023/06/01 00:55:53;;;;;;;11.32;5.15;;;25.40;50.70;;;;;;5090856;28;20028;-67
2023/06/01 00:58:19;;;;;;;12.48;4.55;;;25.30;50.70;;;;;;5090978;28;20503;-67
2023/06/01 01:00:48;;;;;;;13.55;4.85;;;25.30;50.80;;;;;;5089387;28;20024;-67
2023/06/01 01:03:15;;;;;;;17.27;4.95;;;25.20;50.80;;;;;;5093523;28;20211;-67
2023/06/01 01:05:41;;;;;;;11.27;4.80;;;25.30;50.80;;;;;;5093223;28;20130;-66
2023/06/01 01:08:14;;;;;;;8.77;4.70;;;25.30;50.80;;;;;;5090368;28;20464;-67
2023/06/01 01:10:49;;;;;;;;;;;25.20;50.80;;;;;;5095059;28;20028;-67
2023/06/01 01:13:31;;;;;;;9.40;4.57;;;25.30;50.90;;;;;;5093351;28;20349;-67
2023/06/01 01:16:07;;;;;;;7.35;4.15;;;25.10;50.90;;;;;;5092989;28;20776;-67
2023/06/01 01:18:41;;;;;;;10.32;4.70;;;25.30;50.90;;;;;;5093263;28;20032;-66
2023/06/01 01:21:27;;;;;;;10.98;4.90;;;25.10;51.10;;;;;;5093069;28;20035;-66
2023/06/01 01:24:28;;;;;;;8.48;4.18;;;25.10;51.20;;;;;;5094336;28;20403;-67
2023/06/01 01:27:12;;;;;;;8.85;4.07;;;25.20;51.20;;;;;;5091707;28;20048;-66
2023/06/01 01:29:40;;;;;;;5.72;4.15;;;25.10;51.20;;;;;;5094209;28;20056;-67
2023/06/01 01:32:07;;;;;;;9.15;4.35;;;25.20;51.30;;;;;;5093168;28;20074;-66
2023/06/01 01:34:35;;;;;;;6.60;4.30;;;25.30;51.30;;;;;;5094101;28;20032;-67
2023/06/01 01:37:02;;;;;;;7.15;4.35;;;25.00;51.30;;;;;;5092917;28;20052;-66
2023/06/01 01:39:28;;;;;;;12.55;4.43;;;25.10;51.30;;;;;;5092780;28;20127;-67
2023/06/01 01:41:54;;;;;;;7.95;4.88;;;25.10;51.20;;;;;;5092818;28;20488;-66
2023/06/01 01:44:20;;;;;;;8.73;4.65;;;25.10;51.30;;;;;;5093899;28;20031;-67
2023/06/01 01:46:53;;;;;;;12.25;5.05;;;25.10;51.30;;;;;;5093725;28;20043;-66
2023/06/01 01:49:33;;;;;;;11.82;5.28;;;25.20;51.30;;;;;;5092698;28;20024;-67
2023/06/01 01:52:15;;;;;;;10.80;4.80;;;25.20;51.40;;;;;;5092432;28;20051;-67
2023/06/01 01:54:47;;;;;;;13.90;4.22;;;25.00;51.40;;;;;;5092306;28;20078;-66
2023/06/01 01:57:14;;;;;;;12.97;5.43;;;25.10;51.40;;;;;;5093654;28;20039;-67
2023/06/01 01:59:42;;;;;;;6.63;4.53;;;25.10;51.40;;;;;;5092294;28;20085;-66
2023/06/01 02:02:09;;;;;;;9.60;4.47;;;25.00;51.40;;;;;;5092555;28;20040;-67
2023/06/01 02:04:43;;;;;;;7.28;3.92;;;25.10;51.40;;;;;;5091374;28;20024;-66
2023/06/01 02:07:10;;;;;;;8.05;4.38;;;25.00;51.40;;;;;;5092037;28;20090;-67
2023/06/01 02:09:37;;;;;;;9.13;4.22;;;25.00;51.40;;;;;;5092088;28;20093;-67
2023/06/01 02:12:04;;;;;;;15.23;4.38;;;25.00;51.50;;;;;;5091861;28;20111;-67
2023/06/01 02:14:32;;;;;;;7.47;4.35;;;25.00;51.50;;;;;;5089288;28;20398;-67
2023/06/01 02:17:00;;;;;;;16.58;4.13;;;24.90;51.50;;;;;;5071707;28;20040;-67
2023/06/01 02:19:29;;;;;;;12.50;3.78;;;25.00;51.60;;;;;;5071761;28;20033;-67
2023/06/01 02:21:56;;;;;;;9.05;3.80;;;24.80;51.60;;;;;;5071849;28;20048;-67
2023/06/01 02:24:22;;;;;;;9.80;3.95;;;25.00;51.70;;;;;;5072889;28;20053;-67
2023/06/01 02:26:48;;;;;;;10.32;4.07;;;25.00;51.80;;;;;;5071572;28;20098;-66
2023/06/01 02:29:14;;;;;;;9.77;3.85;;;24.80;51.60;;;;;;5072980;28;20110;-67
2023/06/01 02:31:41;;;;;;;7.18;3.72;;;24.80;51.70;;;;;;5072835;28;20050;-66
2023/06/01 02:34:07;;;;;;;8.35;4.53;;;25.00;51.80;;;;;;5055261;28;20083;-67
2023/06/01 02:36:34;;;;;;;7.07;3.95;;;24.80;51.70;;;;;;5072521;28;20117;-67
2023/06/01 02:39:00;;;;;;;7.90;4.10;;;24.90;51.80;;;;;;5053703;28;20055;-66
2023/06/01 02:41:26;;;;;;;8.90;3.40;;;24.90;51.80;;;;;;5054998;28;20048;-67
2023/06/01 02:43:52;;;;;;;13.32;4.60;;;24.80;51.70;;;;;;5072486;28;20081;-67
2023/06/01 02:46:19;;;;;;;10.98;4.40;;;24.90;51.90;;;;;;5072370;28;20049;-67
2023/06/01 02:48:46;;;;;;;6.85;3.70;;;25.00;51.70;;;;;;5071201;28;20025;-67
2023/06/01 02:51:12;;;;;;;10.90;4.95;;;25.00;51.70;;;;;;5071150;28;20032;-67
2023/06/01 02:53:42;;;;;;;11.02;3.97;;;25.00;51.70;;;;;;5070976;28;20029;-67
2023/06/01 02:56:10;;;;;;;7.43;4.03;;;24.90;51.70;;;;;;5071229;28;20047;-67
2023/06/01 02:58:59;;;;;;;9.75;3.92;;;24.80;51.70;;;;;;5089855;28;20556;-67
2023/06/01 03:01:35;;;;;;;4.90;3.45;;;24.80;51.70;;;;;;5089959;28;20115;-67
2023/06/01 03:04:07;;;;;;;11.73;4.13;;;24.80;51.60;;;;;;5089753;28;20036;-67
2023/06/01 03:06:37;;;;;;;7.57;3.35;;;24.70;51.60;;;;;;5089920;28;20427;-67
2023/06/01 03:09:26;;;;;;;6.45;3.65;;;24.80;51.70;;;;;;5049316;28;20129;-66
2023/06/01 03:11:58;;;;;;;5.65;3.78;;;24.80;51.60;;;;;;5066016;28;20052;-67
2023/06/01 03:14:25;;;;;;;6.97;3.50;;;24.70;51.60;;;;;;5066177;28;20087;-67
2023/06/01 03:16:51;;;;;;;8.05;3.55;;;24.80;51.60;;;;;;5049299;28;20053;-67
2023/06/01 03:19:19;;;;;;;6.30;3.97;;;24.80;51.80;;;;;;5066175;28;20040;-67
2023/06/01 03:21:49;;;;;;;6.00;3.55;;;24.70;51.80;;;;;;5065887;28;20063;-66
2023/06/01 03:24:18;;;;;;;6.75;3.63;;;24.70;51.90;;;;;;5065346;28;20055;-66
2023/06/01 03:26:44;;;;;;;7.00;3.80;;;24.70;51.80;;;;;;5032116;28;20048;-67
2023/06/01 03:29:10;;;;;;;6.75;4.18;;;24.80;51.70;;;;;;5049231;28;20037;-67
2023/06/01 03:31:37;;;;;;;10.98;3.90;;;24.80;51.60;;;;;;5049221;28;20044;-67
2023/06/01 03:34:03;;;;;;;4.95;2.92;;;24.90;51.60;;;;;;5048913;28;20041;-67
2023/06/01 03:36:28;;;;;;;6.05;3.40;;;25.00;51.60;;;;;;5049201;28;20041;-71
2023/06/01 03:38:55;;;;;;;4.35;2.60;;;24.90;51.60;;;;;;5048982;28;20501;-71
2023/06/01 03:41:25;;;;;;;5.43;2.78;;;25.00;50.90;;;;;;5049243;28;20116;-70
2023/06/01 03:43:51;;;;;;;3.60;2.53;;;25.20;49.50;;;;;;5048996;28;20120;-70
2023/06/01 03:46:18;;;;;;;7.28;3.88;;;25.20;48.20;;;;;;5050573;28;20044;-71
2023/06/01 03:48:44;;;;;;;6.97;4.38;;;25.20;47.10;;;;;;5090476;28;20367;-71
2023/06/01 03:51:10;;;;;;;9.13;3.80;;;25.30;46.30;;;;;;5090195;28;20036;-71
2023/06/01 03:53:37;;;;;;;8.93;3.85;;;25.30;45.80;;;;;;5090236;28;20452;-72
2023/06/01 03:56:03;;;;;;;12.13;4.40;;;25.30;45.00;;;;;;5090024;28;20040;-71
2023/06/01 03:58:36;;;;;;;;;;;25.30;44.80;;;;;;5074990;28;20125;-71
2023/06/01 04:01:03;;;;;;;7.68;4.00;;;25.30;44.70;;;;;;5090265;28;19908;-72
2023/06/01 04:03:29;;;;;;;9.05;4.60;;;25.40;47.20;;;;;;5090422;28;20067;-71
2023/06/01 04:05:59;;;;;;;8.18;4.70;;;25.60;48.90;;;;;;5089900;28;20479;-71
2023/06/01 04:08:26;;;;;;;9.25;5.75;;;25.70;49.70;;;;;;5091828;28;20044;-71
2023/06/01 04:10:52;;;;;;;10.80;4.78;;;25.90;48.40;;;;;;5068170;28;20052;-71
2023/06/01 04:13:18;;;;;;;11.80;4.65;;;26.00;46.60;;;;;;5051981;28;20508;-71
2023/06/01 04:15:47;;;;;;;8.30;4.40;;;25.70;46.00;;;;;;5068722;28;20121;-72
2023/06/01 04:18:17;;;;;;;11.50;4.97;;;25.70;45.80;;;;;;5051776;28;20037;-72
2023/06/01 04:20:55;;;;;;;11.85;5.05;;;25.80;45.90;;;;;;5068707;28;20045;-72
2023/06/01 04:23:22;;;;;;;12.25;4.30;;;25.70;45.60;;;;;;5068402;28;20086;-71
2023/06/01 04:25:51;;;;;;;9.77;5.25;;;25.70;45.50;;;;;;5086635;28;20051;-71
2023/06/01 04:28:18;;;;;;;8.18;4.85;;;25.70;45.50;;;;;;5071923;28;20059;-70
2023/06/01 04:30:47;;;;;;;11.13;5.28;;;25.80;45.50;;;;;;5088891;28;20076;-72
2023/06/01 04:33:13;;;;;;;11.52;5.47;;;25.80;45.40;;;;;;5088615;28;20055;-72
2023/06/01 04:35:39;;;;;;;11.95;4.40;;;25.80;45.40;;;;;;5055281;28;20227;-72
2023/06/01 04:38:08;;;;;;;8.88;4.63;;;25.80;45.30;;;;;;5092584;28;20043;-70
2023/06/01 04:40:35;;;;;;;8.38;4.38;;;25.80;45.10;;;;;;5072863;28;20440;-70
2023/06/01 04:43:02;;;;;;;5.93;4.07;;;25.80;45.00;;;;;;5073032;28;20040;-71
2023/06/01 04:45:38;;;;;;;9.57;5.00;;;25.80;44.60;;;;;;5090517;28;20048;-71
2023/06/01 04:48:08;;;;;;;8.05;4.43;;;25.80;43.30;;;;;;5056779;28;20064;-71
2023/06/01 04:51:10;;;;;;;10.88;5.50;;;25.70;42.70;;;;;;5052431;28;20143;-73
2023/06/01 04:53:36;;;;;;;13.75;5.15;;;25.80;42.50;;;;;;5052207;28;20086;-72
2023/06/01 04:56:02;;;;;;;10.82;5.10;;;25.70;43.60;;;;;;5052224;28;20053;-72
2023/06/01 04:58:28;;;;;;;7.13;4.13;;;25.60;46.40;;;;;;5071683;28;20052;-73
2023/06/01 05:00:55;;;;;;;13.15;4.93;;;25.70;47.70;;;;;;5072117;28;20106;-72
2023/06/01 05:03:21;;;;;;;6.55;4.45;;;25.80;49.60;;;;;;5066880;28;20047;-71
2023/06/01 05:05:47;;;;;;;7.40;4.70;;;25.80;50.00;;;;;;5051907;28;20127;-73
2023/06/01 05:08:15;;;;;;;9.73;4.85;;;25.90;51.20;;;;;;5035207;28;20044;-73
2023/06/01 05:10:41;;;;;;;7.57;4.68;;;26.00;52.40;;;;;;4960662;28;20086;-73
2023/06/01 05:13:07;;;;;;;9.45;5.03;;;26.00;56.10;;;;;;4992498;28;20081;-70
2023/06/01 05:15:33;;;;;;;10.10;5.00;;;26.10;58.30;;;;;;4976271;28;20054;-73
2023/06/01 05:17:59;;;;;;;15.32;4.85;;;26.10;62.30;;;;;;4976045;28;20047;-73
2023/06/01 05:20:26;;;;;;;8.63;4.25;;;26.30;61.10;;;;;;4976256;28;20126;-71
2023/06/01 05:22:55;;;;;;;8.57;4.63;;;26.30;62.50;;;;;;4992367;28;20050;-73
2023/06/01 05:25:22;;;;;;;7.50;4.82;;;26.40;61.70;;;;;;4987283;28;20193;-72
2023/06/01 05:27:48;;;;;;;10.85;4.22;;;26.30;63.80;;;;;;4995503;28;20057;-73
2023/06/01 05:30:14;;;;;;;11.32;4.43;;;26.50;64.10;;;;;;5015012;28;20053;-72
2023/06/01 05:32:42;;;;;;;9.35;3.67;;;26.50;64.50;;;;;;5018532;28;20392;-71
2023/06/01 05:35:15;;;;;;;;;;;26.50;65.20;;;;;;5035203;28;20469;-72
2023/06/01 05:37:41;;;;;;;11.40;4.28;;;26.50;65.60;;;;;;5051563;28;19935;-72
2023/06/01 05:40:08;;;;;;;9.77;4.00;;;26.60;66.70;;;;;;5034891;28;20075;-73
2023/06/01 05:42:36;;;;;;;10.77;5.10;;;26.60;65.10;;;;;;5084952;28;20047;-72
2023/06/01 05:45:02;;;;;;;10.15;4.25;;;26.70;66.10;;;;;;5092913;28;20169;-71
2023/06/01 05:47:28;;;;;;;7.53;4.28;;;26.60;60.60;;;;;;5075205;28;20103;-73
2023/06/01 05:49:54;;;;;;;6.05;3.47;;;26.70;56.90;;;;;;5092566;28;20055;-72
2023/06/01 05:52:22;;;;;;;4.95;3.53;;;26.60;55.60;;;;;;5092443;28;20048;-70
2023/06/01 05:54:50;;;;;;;7.45;3.45;;;26.60;54.70;;;;;;5092455;28;20032;-73
2023/06/01 05:57:16;;;;;;;9.82;3.95;;;26.70;53.90;;;;;;5075734;28;20112;-73
2023/06/01 05:59:43;;;;;;;10.60;4.05;;;26.50;53.20;;;;;;5092701;28;20451;-74
2023/06/01 06:02:09;;;;;;;7.25;3.35;;;26.70;52.80;;;;;;5092462;28;20309;-71
2023/06/01 06:04:35;;;;;;;10.23;3.35;;;26.40;47.10;;;;;;5093970;28;20475;-71
2023/06/01 06:07:01;;;;;;;4.43;3.20;;;26.30;43.90;;;;;;5093197;28;20042;-70
2023/06/01 06:09:27;;;;;;;9.52;4.13;;;26.30;43.20;;;;;;5093573;28;20036;-71
2023/06/01 06:11:53;;;;;;;10.80;3.05;;;26.40;43.00;;;;;;5093974;28;20113;-69
2023/06/01 06:14:19;;;;;;;10.02;3.63;;;26.10;42.20;;;;;;5093663;28;20036;-70
2023/06/01 06:16:45;;;;;;;7.93;3.90;;;26.10;42.20;;;;;;5093685;28;20071;-70
2023/06/01 06:19:11;;;;;;;6.70;3.63;;;26.00;42.40;;;;;;5093314;28;20085;-74
2023/06/01 06:21:37;;;;;;;7.28;2.95;;;26.00;42.80;;;;;;5090747;28;20491;-70
2023/06/01 06:24:04;;;;;;;7.13;3.17;;;26.00;43.40;;;;;;5093209;28;20136;-73
2023/06/01 06:26:30;;;;;;;5.60;3.22;;;26.00;42.10;;;;;;5093393;28;20036;-73
2023/06/01 06:28:56;;;;;;;14.65;4.00;;;26.00;42.60;;;;;;5092364;28;20480;-72
2023/06/01 06:31:22;;;;;;;8.93;4.50;;;25.90;42.90;;;;;;5093128;28;20044;-69
2023/06/01 06:33:48;;;;;;;6.65;3.38;;;26.00;42.50;;;;;;5093216;28;20332;-72
2023/06/01 06:36:14;;;;;;;5.63;3.70;;;26.00;42.60;;;;;;5093073;28;20064;-69
2023/06/01 06:38:40;;;;;;;10.85;5.18;;;25.90;42.50;;;;;;5092856;28;20059;-72
2023/06/01 06:41:06;;;;;;;19.98;8.90;;;25.80;41.90;;;;;;5093100;28;20088;-72
2023/06/01 06:43:32;;;;;;;25.95;11.90;;;25.90;43.40;;;;;;5092859;28;20028;-73
2023/06/01 06:45:58;;;;;;;31.73;12.40;;;25.90;43.20;;;;;;5092902;28;20081;-73
2023/06/01 06:48:24;;;;;;;23.23;8.32;;;25.90;43.90;;;;;;5093133;28;20070;-69
2023/06/01 06:50:51;;;;;;;23.05;13.90;;;25.90;43.80;;;;;;5092916;28;20035;-68
2023/06/01 06:53:17;;;;;;;10.73;6.70;;;25.90;44.10;;;;;;5092756;28;20052;-69
2023/06/01 06:55:44;;;;;;;7.80;4.43;;;25.90;43.90;;;;;;5092931;28;20032;-68
2023/06/01 06:58:11;;;;;;;10.13;5.53;;;25.80;43.20;;;;;;5092833;28;20111;-68
2023/06/01 07:00:37;;;;;;;11.07;5.95;;;25.80;42.90;;;;;;5091847;28;20028;-69
2023/06/01 07:03:03;;;;;;;3.90;2.33;;;25.80;42.10;;;;;;5092629;28;20043;-70
2023/06/01 07:05:29;;;;;;;9.90;3.30;;;25.70;41.50;;;;;;5092517;28;20040;-69
2023/06/01 07:07:56;;;;;;;3.50;2.47;;;25.80;41.40;;;;;;5091689;28;20064;-70
2023/06/01 07:10:22;;;;;;;2.88;2.00;;;25.90;41.40;;;;;;5090384;28;20032;-67
2023/06/01 07:12:48;;;;;;;1.83;1.65;;;25.70;41.30;;;;;;5092403;28;20411;-68
2023/06/01 07:15:14;;;;;;;2.55;2.35;;;25.70;41.50;;;;;;5092492;28;20048;-67
2023/06/01 07:17:40;;;;;;;7.18;2.40;;;25.70;41.70;;;;;;5092192;28;20071;-68
2023/06/01 07:20:13;;;;;;;3.97;2.45;;;25.70;41.60;;;;;;5068618;28;20384;-67
2023/06/01 07:22:40;;;;;;;9.18;4.07;;;25.70;42.00;;;;;;5068705;28;20038;-69
2023/06/01 07:25:09;;;;;;;11.13;6.43;;;25.60;42.00;;;;;;5067555;28;20032;-70
2023/06/01 07:27:36;;;;;;;9.32;3.78;;;25.90;52.30;;;;;;5050606;28;20377;-69
2023/06/01 07:30:03;;;;;;;8.50;4.85;;;25.80;51.20;;;;;;5068432;28;20032;-70
2023/06/01 07:32:29;;;;;;;10.70;4.05;;;25.90;51.70;;;;;;5068507;28;20035;-69
2023/06/01 07:34:57;;;;;;;5.43;4.03;;;25.80;50.70;;;;;;5067281;28;20392;-70
2023/06/01 07:37:26;;;;;;;9.23;4.50;;;26.00;52.20;;;;;;5068461;28;20093;-71
2023/06/01 07:39:53;;;;;;;5.18;3.80;;;26.00;49.80;;;;;;5068188;28;20471;-70
2023/06/01 07:42:20;;;;;;;8.02;3.65;;;25.90;47.70;;;;;;5068091;28;20033;-70
2023/06/01 07:44:46;;;;;;;8.13;4.03;;;26.00;47.70;;;;;;5067182;28;20037;-70
2023/06/01 07:47:12;;;;;;;8.50;4.20;;;25.90;47.20;;;;;;5067973;28;20112;-71
2023/06/01 07:49:38;;;;;;;7.40;3.63;;;25.90;45.50;;;;;;5068252;28;20111;-71
2023/06/01 07:52:06;;;;;;;11.30;4.03;;;26.00;46.00;;;;;;5068005;28;20429;-70
2023/06/01 07:54:35;;;;;;;7.18;4.13;;;25.80;45.30;;;;;;5068083;28;20029;-70
2023/06/01 07:57:02;;;;;;;10.50;4.28;;;25.90;44.90;;;;;;5066641;28;20029;-70
2023/06/01 07:59:29;;;;;;;8.05;3.63;;;26.10;45.20;;;;;;5067639;28;20032;-70
2023/06/01 08:01:56;;;;;;;8.10;3.75;;;26.00;44.50;;;;;;5066233;28;20090;-69
2023/06/01 08:04:22;;;;;;;4.63;3.17;;;26.00;44.70;;;;;;5068003;28;20124;-69
2023/06/01 08:06:52;;;;;;;11.90;4.07;;;26.00;44.40;;;;;;5065984;28;20040;-68
2023/06/01 08:09:21;;;;;;;8.90;3.92;;;26.00;44.40;;;;;;5067692;28;20047;-67
2023/06/01 08:11:48;;;;;;;8.05;3.80;;;26.00;44.30;;;;;;5067550;28;20025;-68
2023/06/01 08:14:15;;;;;;;6.13;3.08;;;26.00;44.70;;;;;;5067352;28;20029;-68
2023/06/01 08:16:42;;;;;;;5.25;3.00;;;26.00;44.50;;;;;;5067617;28;20085;-68
2023/06/01 08:19:08;;;;;;;14.77;4.57;;;26.00;45.00;;;;;;5067092;28;20059;-65
2023/06/01 08:21:37;;;;;;;5.55;3.38;;;26.00;45.70;;;;;;5067046;28;20047;-68
2023/06/01 08:24:03;;;;;;;4.80;2.63;;;26.00;45.50;;;;;;5067069;28;20480;-69
2023/06/01 08:26:29;;;;;;;3.80;3.30;;;26.00;45.50;;;;;;5064752;28;20064;-65
2023/06/01 08:28:55;;;;;;;6.50;2.85;;;25.80;45.30;;;;;;5066984;28;20064;-66
2023/06/01 08:31:24;;;;;;;2.28;2.08;;;25.90;46.00;;;;;;5055126;28;20029;-67
2023/06/01 08:33:51;;;;;;;3.47;2.25;;;25.80;46.60;;;;;;5053655;28;20029;-67
2023/06/01 08:36:19;;;;;;;4.45;2.67;;;26.00;47.20;;;;;;5052151;28;20037;-67
2023/06/01 08:38:45;;;;;;;5.88;2.97;;;25.80;48.10;;;;;;5052293;28;20037;-66
2023/06/01 08:41:20;;;;;;;5.97;2.78;;;25.90;49.50;;;;;;5053580;28;20040;-67
2023/06/01 08:43:59;;;;;;;6.20;2.70;;;26.00;49.80;;;;;;5053313;28;20067;-68
2023/06/01 08:46:26;;;;;;;6.85;2.80;;;25.90;50.00;;;;;;5053235;28;20045;-67
2023/06/01 08:48:55;;;;;;;4.88;2.80;;;25.90;50.50;;;;;;5053119;28;20115;-66
2023/06/01 08:51:25;;;;;;;4.65;2.40;;;25.90;49.70;;;;;;5053517;28;20037;-67
2023/06/01 08:53:53;;;;;;;4.00;2.88;;;25.90;48.60;;;;;;5053286;28;20033;-67
2023/06/01 08:56:21;;;;;;;8.45;2.67;;;26.00;48.30;;;;;;5053547;28;20059;-67
2023/06/01 08:58:47;;;;;;;5.70;2.72;;;26.10;48.20;;;;;;5051760;28;20052;-68
2023/06/01 09:01:18;;;;;;;4.75;3.03;;;26.20;47.90;;;;;;5053306;28;20036;-66
2023/06/01 09:03:44;;;;;;;7.30;3.08;;;26.10;48.00;;;;;;5053457;28;20037;-70
2023/06/01 09:06:11;;;;;;;4.95;2.47;;;26.20;48.10;;;;;;5053522;28;20021;-69
2023/06/01 09:08:37;;;;;;;4.50;2.30;;;26.10;49.20;;;;;;5053233;28;20036;-70
2023/06/01 09:11:03;;;;;;;5.45;3.22;;;26.30;51.90;;;;;;5053822;28;20037;-70
2023/06/01 09:13:36;;;;;;;9.38;2.95;;;26.40;47.70;;;;;;5052157;28;20056;-73
2023/06/01 09:16:03;;;;;;;4.03;2.60;;;26.40;48.30;;;;;;5053158;28;20045;-70
2023/06/01 09:18:29;;;;;;;3.67;2.58;;;26.60;49.60;;;;;;5052905;28;20052;-72
2023/06/01 09:21:13;;;;;;;8.20;2.70;;;26.70;49.70;;;;;;5053561;28;20029;-70
2023/06/01 09:23:41;;;;;;;3.45;2.85;;;26.60;49.40;;;;;;5052045;28;20507;-68
2023/06/01 09:26:11;;;;;;;4.82;2.22;;;26.80;48.30;;;;;;5053151;28;20045;-72
2023/06/01 09:28:54;;;;;;;6.75;2.80;;;26.60;48.30;;;;;;5053315;28;20032;-70
2023/06/01 09:31:47;;;;;;;3.42;2.22;;;26.70;47.80;;;;;;5052839;28;20037;-72
2023/06/01 09:34:18;;;;;;;3.03;2.50;;;26.70;47.50;;;;;;5052734;28;20502;-69
2023/06/01 09:36:48;;;;;;;3.22;1.33;;;26.70;47.20;;;;;;5052905;28;20060;-71
2023/06/01 09:39:16;;;;;;;2.33;1.48;;;26.80;48.10;;;;;;5052508;28;20036;-70
2023/06/01 09:41:47;;;;;;;2.17;1.95;;;26.70;49.90;;;;;;5050325;28;20465;-73
2023/06/01 09:44:21;;;;;;;2.60;2.40;;;26.70;52.80;;;;;;5051845;28;20109;-71
2023/06/01 09:46:54;;;;;;;5.43;2.60;;;27.00;53.60;;;;;;5052570;28;20060;-69
2023/06/01 09:49:24;;;;;;;3.67;2.63;;;27.00;50.50;;;;;;5052654;28;20368;-75
2023/06/01 09:51:52;;;;;;;2.35;1.95;;;26.90;51.50;;;;;;5051430;28;20060;-69
2023/06/01 09:54:27;;;;;;;6.60;3.50;;;27.20;50.50;;;;;;5052588;28;20123;-69
2023/06/01 09:56:54;;;;;;;5.05;2.80;;;27.60;56.90;;;;;;5052758;28;20029;-69
2023/06/01 09:59:22;;;;;;;7.72;2.85;;;27.60;48.40;;;;;;5052440;28;20037;-71
2023/06/01 10:01:52;;;;;;;8.45;2.67;;;27.40;46.60;;;;;;5052538;28;20033;-70
2023/06/01 10:04:29;;;;;;;7.85;2.83;;;27.30;48.20;;;;;;5051110;28;20037;-69
2023/06/01 10:06:57;;;;;;;6.63;3.38;;;27.30;47.90;;;;;;5051499;28;20067;-67
2023/06/01 10:09:26;;;;;;;8.73;3.28;;;27.20;48.00;;;;;;5051571;28;20045;-65
2023/06/01 10:11:53;;;;;;;6.55;3.08;;;27.20;47.80;;;;;;5051752;28;20059;-66
2023/06/01 10:14:21;;;;;;;12.70;5.90;;;27.10;48.20;;;;;;5051480;28;20089;-66
2023/06/01 10:16:52;;;;;;;10.93;5.43;;;27.30;48.50;;;;;;5051078;28;20464;-66
2023/06/01 10:19:21;;;;;;;4.90;3.20;;;27.40;50.00;;;;;;5051292;28;20148;-67
2023/06/01 10:21:47;;;;;;;6.78;2.80;;;27.60;46.60;;;;;;5051425;28;20786;-68
2023/06/01 10:24:20;;;;;;;5.03;2.00;;;27.70;46.50;;;;;;5051864;28;20045;-67
2023/06/01 10:27:10;;;;;;;5.82;2.40;;;27.70;50.50;;;;;;5051384;28;20039;-68
2023/06/01 10:29:36;;;;;;;5.72;2.72;;;27.60;49.00;;;;;;5051476;28;20041;-67
2023/06/01 10:32:02;;;;;;;4.22;2.30;;;27.60;48.20;;;;;;5051899;28;20083;-67
2023/06/01 10:34:42;;;;;;;9.57;3.00;;;27.40;47.90;;;;;;5051963;28;20040;-67
2023/06/01 10:37:08;;;;;;;7.68;3.40;;;27.40;47.00;;;;;;5050456;28;20033;-66
2023/06/01 10:39:35;;;;;;;4.22;2.70;;;27.40;50.40;;;;;;5068979;28;20048;-66
2023/06/01 10:42:13;;;;;;;4.70;2.75;;;27.50;50.10;;;;;;5052607;28;20083;-66
2023/06/01 10:44:39;;;;;;;3.88;2.55;;;27.70;54.50;;;;;;5069058;28;20055;-65
2023/06/01 10:47:06;;;;;;;8.70;3.42;;;27.80;55.50;;;;;;5069195;28;20040;-67
2023/06/01 10:49:47;;;;;;;3.53;2.45;;;27.90;55.60;;;;;;5069047;28;20040;-67
2023/06/01 10:52:33;;;;;;;6.13;2.40;;;27.90;55.90;;;;;;5069020;28;20032;-66
2023/06/01 10:55:13;;;;;;;3.00;2.35;;;27.90;50.20;;;;;;5068656;28;20131;-67
2023/06/01 10:57:46;;;;;;;6.55;2.13;;;27.90;49.30;;;;;;5068581;28;20453;-67
2023/06/01 11:00:30;;;;;;;5.60;2.92;;;27.70;48.80;;;;;;5068556;28;20044;-67
2023/06/01 11:02:59;;;;;;;3.55;2.60;;;27.70;48.70;;;;;;5068953;28;20040;-67
2023/06/01 11:05:48;;;;;;;6.32;2.95;;;27.60;48.40;;;;;;5087344;28;20094;-67
2023/06/01 11:08:17;;;;;;;3.75;2.97;;;27.60;48.40;;;;;;5052443;28;20389;-68
2023/06/01 11:10:52;;;;;;;4.13;2.60;;;27.60;49.00;;;;;;5058339;28;20354;-67
2023/06/01 11:13:32;;;;;;;7.38;2.72;;;27.60;48.70;;;;;;5064244;28;20071;-67
2023/06/01 11:16:07;;;;;;;6.78;2.55;;;27.50;48.50;;;;;;5058437;28;20041;-67
2023/06/01 11:18:46;;;;;;;7.35;3.17;;;27.50;48.40;;;;;;5051133;28;20420;-68
2023/06/01 11:21:16;;;;;;;3.50;2.70;;;27.50;48.30;;;;;;5051297;28;20025;-67
2023/06/01 11:23:43;;;;;;;5.43;2.40;;;27.50;48.30;;;;;;5049870;28;20098;-66
2023/06/01 11:26:09;;;;;;;4.18;2.40;;;27.50;48.30;;;;;;5051013;28;20156;-66
2023/06/01 11:28:35;;;;;;;4.80;2.38;;;27.50;48.00;;;;;;5051247;28;20082;-67
2023/06/01 11:31:02;;;;;;;4.60;2.67;;;27.30;48.90;;;;;;5069230;28;20067;-67
2023/06/01 11:33:29;;;;;;;3.85;2.22;;;27.20;49.20;;;;;;5071044;28;20036;-67
2023/06/01 11:35:59;;;;;;;6.70;2.30;;;27.20;48.60;;;;;;5070872;28;20037;-67
2023/06/01 11:38:38;;;;;;;2.17;1.95;;;27.30;48.60;;;;;;5070829;28;20476;-67
2023/06/01 11:41:04;;;;;;;3.65;2.38;;;27.20;48.50;;;;;;5062336;28;20037;-67
2023/06/01 11:43:31;;;;;;;11.23;2.78;;;27.20;48.60;;;;;;5051131;28;20493;-67
2023/06/01 11:46:02;;;;;;;3.33;2.38;;;27.20;48.60;;;;;;5050780;28;20052;-67
2023/06/01 11:48:28;;;;;;;4.47;2.35;;;27.10;48.60;;;;;;5051098;28;20045;-67
2023/06/01 11:50:55;;;;;;;4.63;2.58;;;27.00;48.80;;;;;;5050712;28;20704;-67
2023/06/01 11:53:24;;;;;;;5.80;2.53;;;27.00;48.80;;;;;;5032780;28;20037;-67
2023/06/01 11:55:54;;;;;;;4.13;2.28;;;27.00;48.90;;;;;;5032830;28;20100;-67
2023/06/01 11:58:30;;;;;;;6.32;2.42;;;27.00;49.10;;;;;;5050877;28;20469;-67
2023/06/01 12:00:57;;;;;;;5.72;2.58;;;26.90;49.00;;;;;;5049206;28;20404;-68
2023/06/01 12:03:24;;;;;;;3.75;2.42;;;26.90;49.00;;;;;;5050632;28;20029;-66
2023/06/01 12:05:51;;;;;;;7.25;2.08;;;27.00;50.00;;;;;;5052518;28;20036;-71
2023/06/01 12:08:25;;;;;;;3.95;2.20;;;26.70;49.40;;;;;;5054755;28;20045;-66
2023/06/01 12:10:52;;;;;;;8.40;2.05;;;26.80;49.70;;;;;;5054572;28;20143;-67
2023/06/01 12:13:19;;;;;;;2.80;2.42;;;26.90;49.80;;;;;;5054064;28;20037;-67
2023/06/01 12:15:46;;;;;;;4.70;2.55;;;26.70;49.80;;;;;;5054368;28;20108;-69
2023/06/01 12:18:12;;;;;;;3.50;2.33;;;26.70;49.70;;;;;;5053965;28;20031;-66
2023/06/01 12:20:42;;;;;;;3.97;2.80;;;26.60;49.20;;;;;;5054197;28;20110;-65
2023/06/01 12:23:16;;;;;;;6.40;2.60;;;26.70;48.30;;;;;;5054161;28;20120;-65
2023/06/01 12:26:00;;;;;;;3.58;2.20;;;26.80;48.70;;;;;;5054438;28;20119;-66
2023/06/01 12:28:29;;;;;;;5.15;1.50;;;26.80;43.90;;;;;;5053829;28;20029;-72
2023/06/01 12:31:10;;;;;;;5.80;2.30;;;26.70;47.00;;;;;;5052813;28;20089;-66
2023/06/01 12:33:37;;;;;;;5.65;2.60;;;26.80;48.60;;;;;;5053895;28;20038;-66
2023/06/01 12:36:05;;;;;;;2.97;1.95;;;26.70;46.70;;;;;;5054108;28;20033;-66
2023/06/01 12:38:48;;;;;;;4.10;2.50;;;26.70;47.80;;;;;;5052478;28;20037;-66
2023/06/01 12:41:15;;;;;;;4.63;1.80;;;26.70;48.30;;;;;;5052144;28;20056;-66
2023/06/01 12:43:45;;;;;;;7.65;2.47;;;26.70;49.70;;;;;;5068117;28;20426;-65
2023/06/01 12:46:37;;;;;;;4.47;2.58;;;26.80;51.70;;;;;;5053676;28;20036;-66
2023/06/01 12:49:13;;;;;;;3.75;2.95;;;26.80;50.70;;;;;;5014678;28;20037;-66
2023/06/01 12:51:39;;;;;;;4.13;2.20;;;26.80;50.30;;;;;;5030937;28;20037;-66
2023/06/01 12:54:05;;;;;;;5.07;3.10;;;26.80;50.10;;;;;;5031541;28;20052;-67
2023/06/01 12:56:31;;;;;;;5.03;2.22;;;26.80;49.90;;;;;;5031021;28;20029;-68